sensor_id;sensor_type;location;lat;lon;timestamp;P1;P2;P0
77777;PMS5003;66966;-34.746;138.604;2023-08-08T00:00:16;2;2;
77777;PMS5003;66966;-34.746;138.604;2023-08-08T00:02:42;2;2;
77777;PMS5003;66966;-34.746;138.604;2023-08-08T00:05:08;2;2;
77777;PMS5003;66966;-34.746;138.604;2023-08-08T00:07:33;1;1;
77777;PMS5003;66966;-34.746;138.604;2023-08-08T00:09:59;1;1;
77777;PMS5003;66966;-34.746;138.604;2023-08-08T00:12:25;1;1;
77777;PMS5003;66966;-34.746;138.604;2023-08-08T00:14:51;1;1;
77777;PMS5003;66966;-34.746;138.604;2023-08-08T00:17:17;2;2;
77777;PMS5003;66966;-34.746;138.604;2023-08-08T00:19:42;1;1;
77777;PMS5003;66966;-34.746;138.604;2023-08-08T00:22:08;2;1;
77777;PMS5003;66966;-34.746;138.604;2023-08-08T00:24:34;1;1;
77777;PMS5003;66966;-34.746;138.604;2023-08-08T00:27:00;1;1;
77777;PMS5003;66966;-34.746;138.604;2023-08-08T00:29:26;1;1;
77777;PMS5003;66966;-34.746;138.604;2023-08-08T00:31:51;1;1;
77777;PMS5003;66966;-34.746;138.604;2023-08-08T00:34:17;1;1;
77777;PMS5003;66966;-34.746;138.604;2023-08-08T00:36:42;1;1;
77777;PMS5003;66966;-34.746;138.604;2023-08-08T00:39:08;1;1;
77777;PMS5003;66966;-34.746;138.604;2023-08-08T00:41:34;1;1;
77777;PMS5003;66966;-34.746;138.604;2023-08-08T00:43:59;1;0;
77777;PMS5003;66966;-34.746;138.604;2023-08-08T00:46:25;1;1;
77777;PMS5003;66966;-34.746;138.604;2023-08-08T00:48:51;1;1;
77777;PMS5003;66966;-34.746;138.604;2023-08-08T00:51:17;2;1;
77777;PMS5003;66966;-34.746;138.604;2023-08-08T00:53:43;1;1;
77777;PMS5003;66966;-34.746;138.604;2023-08-08T00:56:08;0;0;
77777;PMS5003;66966;-34.746;138.604;2023-08-08T00:58:34;1;1;
77777;PMS5003;66966;-34.746;138.604;2023-08-08T01:00:59;1;1;
77777;PMS5003;66966;-34.746;138.604;2023-08-08T01:03:26;1;1;
77777;PMS5003;66966;-34.746;138.604;2023-08-08T01:05:53;0;0;
77777;PMS5003;66966;-34.746;138.604;2023-08-08T01:08:17;1;1;
77777;PMS5003;66966;-34.746;138.604;2023-08-08T01:10:42;1;1;
77777;PMS5003;66966;-34.746;138.604;2023-08-08T01:13:08;1;1;
77777;PMS5003;66966;-34.746;138.604;2023-08-08T01:15:34;1;1;
77777;PMS5003;66966;-34.746;138.604;2023-08-08T01:17:59;1;1;
77777;PMS5003;66966;-34.746;138.604;2023-08-08T01:20:25;1;1;
77777;PMS5003;66966;-34.746;138.604;2023-08-08T01:22:55;1;1;
77777;PMS5003;66966;-34.746;138.604;2023-08-08T01:25:16;1;1;
77777;PMS5003;66966;-34.746;138.604;2023-08-08T01:27:41;2;2;
77777;PMS5003;66966;-34.746;138.604;2023-08-08T01:30:08;2;1;
77777;PMS5003;66966;-34.746;138.604;2023-08-08T01:32:33;1;1;
77777;PMS5003;66966;-34.746;138.604;2023-08-08T01:34:58;2;2;
77777;PMS5003;66966;-34.746;138.604;2023-08-08T01:37:24;2;2;
77777;PMS5003;66966;-34.746;138.604;2023-08-08T01:39:50;2;2;
77777;PMS5003;66966;-34.746;138.604;2023-08-08T01:42:16;1;0;
77777;PMS5003;66966;-34.746;138.604;2023-08-08T01:44:41;2;2;
77777;PMS5003;66966;-34.746;138.604;2023-08-08T01:47:07;2;2;
77777;PMS5003;66966;-34.746;138.604;2023-08-08T01:49:32;2;2;
77777;PMS5003;66966;-34.746;138.604;2023-08-08T01:51:58;3;2;
77777;PMS5003;66966;-34.746;138.604;2023-08-08T01:54:24;3;2;
77777;PMS5003;66966;-34.746;138.604;2023-08-08T01:56:49;2;1;
77777;PMS5003;66966;-34.746;138.604;2023-08-08T01:59:15;3;2;
77777;PMS5003;66966;-34.746;138.604;2023-08-08T02:01:40;1;1;
77777;PMS5003;66966;-34.746;138.604;2023-08-08T02:04:06;2;2;
77777;PMS5003;66966;-34.746;138.604;2023-08-08T02:06:32;3;2;
77777;PMS5003;66966;-34.746;138.604;2023-08-08T02:08:57;2;1;
77777;PMS5003;66966;-34.746;138.604;2023-08-08T02:11:23;1;1;
77777;PMS5003;66966;-34.746;138.604;2023-08-08T02:13:48;2;2;
77777;PMS5003;66966;-34.746;138.604;2023-08-08T02:16:14;5;2;
77777;PMS5003;66966;-34.746;138.604;2023-08-08T02:18:40;0;0;
77777;PMS5003;66966;-34.746;138.604;2023-08-08T02:21:05;2;2;
77777;PMS5003;66966;-34.746;138.604;2023-08-08T02:23:30;0;0;
77777;PMS5003;66966;-34.746;138.604;2023-08-08T02:25:56;1;1;
77777;PMS5003;66966;-34.746;138.604;2023-08-08T02:28:22;2;2;
77777;PMS5003;66966;-34.746;138.604;2023-08-08T02:30:48;1;1;
77777;PMS5003;66966;-34.746;138.604;2023-08-08T02:33:13;2;2;
77777;PMS5003;66966;-34.746;138.604;2023-08-08T02:35:38;2;1;
77777;PMS5003;66966;-34.746;138.604;2023-08-08T02:38:04;2;2;
77777;PMS5003;66966;-34.746;138.604;2023-08-08T02:40:29;4;4;
77777;PMS5003;66966;-34.746;138.604;2023-08-08T02:42:55;4;3;
77777;PMS5003;66966;-34.746;138.604;2023-08-08T02:45:21;3;3;
77777;PMS5003;66966;-34.746;138.604;2023-08-08T02:47:46;3;3;
77777;PMS5003;66966;-34.746;138.604;2023-08-08T02:50:12;2;2;
77777;PMS5003;66966;-34.746;138.604;2023-08-08T02:52:37;2;2;
77777;PMS5003;66966;-34.746;138.604;2023-08-08T02:55:03;2;2;
77777;PMS5003;66966;-34.746;138.604;2023-08-08T02:57:28;1;1;
77777;PMS5003;66966;-34.746;138.604;2023-08-08T02:59:54;0;0;
77777;PMS5003;66966;-34.746;138.604;2023-08-08T03:02:19;0;0;
77777;PMS5003;66966;-34.746;138.604;2023-08-08T03:04:45;1;1;
77777;PMS5003;66966;-34.746;138.604;2023-08-08T03:07:10;2;2;
77777;PMS5003;66966;-34.746;138.604;2023-08-08T03:09:36;0;0;
77777;PMS5003;66966;-34.746;138.604;2023-08-08T03:12:02;0;0;
77777;PMS5003;66966;-34.746;138.604;2023-08-08T03:14:27;1;1;
77777;PMS5003;66966;-34.746;138.604;2023-08-08T03:16:53;0;0;
77777;PMS5003;66966;-34.746;138.604;2023-08-08T03:19:18;0;0;
77777;PMS5003;66966;-34.746;138.604;2023-08-08T03:21:43;2;1;
77777;PMS5003;66966;-34.746;138.604;2023-08-08T03:24:09;0;0;
77777;PMS5003;66966;-34.746;138.604;2023-08-08T03:26:34;1;1;
77777;PMS5003;66966;-34.746;138.604;2023-08-08T03:29:00;1;1;
77777;PMS5003;66966;-34.746;138.604;2023-08-08T03:31:26;1;1;
77777;PMS5003;66966;-34.746;138.604;2023-08-08T03:33:51;1;0;
77777;PMS5003;66966;-34.746;138.604;2023-08-08T03:36:17;0;0;
77777;PMS5003;66966;-34.746;138.604;2023-08-08T03:38:42;0;0;
77777;PMS5003;66966;-34.746;138.604;2023-08-08T03:41:07;1;1;
77777;PMS5003;66966;-34.746;138.604;2023-08-08T03:43:33;0;0;
77777;PMS5003;66966;-34.746;138.604;2023-08-08T03:45:58;0;0;
77777;PMS5003;66966;-34.746;138.604;2023-08-08T03:48:24;0;0;
77777;PMS5003;66966;-34.746;138.604;2023-08-08T03:50:49;0;0;
77777;PMS5003;66966;-34.746;138.604;2023-08-08T03:53:15;0;0;
77777;PMS5003;66966;-34.746;138.604;2023-08-08T03:55:41;1;1;
77777;PMS5003;66966;-34.746;138.604;2023-08-08T03:58:06;0;0;
77777;PMS5003;66966;-34.746;138.604;2023-08-08T04:00:31;0;0;
77777;PMS5003;66966;-34.746;138.604;2023-08-08T04:02:57;0;0;
77777;PMS5003;66966;-34.746;138.604;2023-08-08T04:05:22;3;3;
77777;PMS5003;66966;-34.746;138.604;2023-08-08T04:07:48;1;1;
77777;PMS5003;66966;-34.746;138.604;2023-08-08T04:10:13;1;1;
77777;PMS5003;66966;-34.746;138.604;2023-08-08T04:12:39;3;3;
77777;PMS5003;66966;-34.746;138.604;2023-08-08T04:15:04;3;3;
77777;PMS5003;66966;-34.746;138.604;2023-08-08T04:17:30;1;1;
77777;PMS5003;66966;-34.746;138.604;2023-08-08T04:19:56;5;5;
77777;PMS5003;66966;-34.746;138.604;2023-08-08T04:22:20;1;1;
77777;PMS5003;66966;-34.746;138.604;2023-08-08T04:24:46;1;1;
77777;PMS5003;66966;-34.746;138.604;2023-08-08T04:27:12;1;0;
77777;PMS5003;66966;-34.746;138.604;2023-08-08T04:29:37;1;1;
77777;PMS5003;66966;-34.746;138.604;2023-08-08T04:32:02;0;0;
77777;PMS5003;66966;-34.746;138.604;2023-08-08T04:34:28;0;0;
77777;PMS5003;66966;-34.746;138.604;2023-08-08T04:36:53;1;1;
77777;PMS5003;66966;-34.746;138.604;2023-08-08T04:39:19;0;0;
77777;PMS5003;66966;-34.746;138.604;2023-08-08T04:41:44;2;2;
77777;PMS5003;66966;-34.746;138.604;2023-08-08T04:44:09;1;1;
77777;PMS5003;66966;-34.746;138.604;2023-08-08T04:46:35;0;0;
77777;PMS5003;66966;-34.746;138.604;2023-08-08T04:49:00;0;0;
77777;PMS5003;66966;-34.746;138.604;2023-08-08T04:51:26;1;1;
77777;PMS5003;66966;-34.746;138.604;2023-08-08T04:53:51;0;0;
77777;PMS5003;66966;-34.746;138.604;2023-08-08T04:56:17;0;0;
77777;PMS5003;66966;-34.746;138.604;2023-08-08T04:58:42;1;1;
77777;PMS5003;66966;-34.746;138.604;2023-08-08T05:01:08;1;1;
77777;PMS5003;66966;-34.746;138.604;2023-08-08T05:03:33;0;0;
77777;PMS5003;66966;-34.746;138.604;2023-08-08T05:05:58;0;0;
77777;PMS5003;66966;-34.746;138.604;2023-08-08T05:08:24;0;0;
77777;PMS5003;66966;-34.746;138.604;2023-08-08T05:10:49;0;0;
77777;PMS5003;66966;-34.746;138.604;2023-08-08T05:13:15;0;0;
77777;PMS5003;66966;-34.746;138.604;2023-08-08T05:15:40;0;0;
77777;PMS5003;66966;-34.746;138.604;2023-08-08T05:18:06;0;0;
77777;PMS5003;66966;-34.746;138.604;2023-08-08T05:20:31;0;0;
77777;PMS5003;66966;-34.746;138.604;2023-08-08T05:22:56;0;0;
77777;PMS5003;66966;-34.746;138.604;2023-08-08T05:25:22;0;0;
77777;PMS5003;66966;-34.746;138.604;2023-08-08T05:27:48;0;0;
77777;PMS5003;66966;-34.746;138.604;2023-08-08T05:30:13;1;0;
77777;PMS5003;66966;-34.746;138.604;2023-08-08T05:32:38;1;1;
77777;PMS5003;66966;-34.746;138.604;2023-08-08T05:35:04;0;0;
77777;PMS5003;66966;-34.746;138.604;2023-08-08T05:37:29;0;0;
77777;PMS5003;66966;-34.746;138.604;2023-08-08T05:39:55;0;0;
77777;PMS5003;66966;-34.746;138.604;2023-08-08T05:42:20;1;0;
77777;PMS5003;66966;-34.746;138.604;2023-08-08T05:44:45;1;0;
77777;PMS5003;66966;-34.746;138.604;2023-08-08T05:47:10;0;0;
77777;PMS5003;66966;-34.746;138.604;2023-08-08T05:49:37;0;0;
77777;PMS5003;66966;-34.746;138.604;2023-08-08T05:52:02;1;0;
77777;PMS5003;66966;-34.746;138.604;2023-08-08T05:54:27;0;0;
77777;PMS5003;66966;-34.746;138.604;2023-08-08T05:56:52;0;0;
77777;PMS5003;66966;-34.746;138.604;2023-08-08T05:59:17;0;0;
77777;PMS5003;66966;-34.746;138.604;2023-08-08T06:01:43;1;0;
77777;PMS5003;66966;-34.746;138.604;2023-08-08T06:04:09;1;1;
77777;PMS5003;66966;-34.746;138.604;2023-08-08T06:06:34;0;0;
77777;PMS5003;66966;-34.746;138.604;2023-08-08T06:08:59;1;1;
77777;PMS5003;66966;-34.746;138.604;2023-08-08T06:11:24;0;0;
77777;PMS5003;66966;-34.746;138.604;2023-08-08T06:13:50;0;0;
77777;PMS5003;66966;-34.746;138.604;2023-08-08T06:16:16;1;1;
77777;PMS5003;66966;-34.746;138.604;2023-08-08T06:18:41;0;0;
77777;PMS5003;66966;-34.746;138.604;2023-08-08T06:21:06;0;0;
77777;PMS5003;66966;-34.746;138.604;2023-08-08T06:23:31;1;1;
77777;PMS5003;66966;-34.746;138.604;2023-08-08T06:25:57;0;0;
77777;PMS5003;66966;-34.746;138.604;2023-08-08T06:28:23;0;0;
77777;PMS5003;66966;-34.746;138.604;2023-08-08T06:30:48;0;0;
77777;PMS5003;66966;-34.746;138.604;2023-08-08T06:33:14;0;0;
77777;PMS5003;66966;-34.746;138.604;2023-08-08T06:35:39;1;1;
77777;PMS5003;66966;-34.746;138.604;2023-08-08T06:38:05;0;0;
77777;PMS5003;66966;-34.746;138.604;2023-08-08T06:40:30;0;0;
77777;PMS5003;66966;-34.746;138.604;2023-08-08T06:42:55;0;0;
77777;PMS5003;66966;-34.746;138.604;2023-08-08T06:45:20;0;0;
77777;PMS5003;66966;-34.746;138.604;2023-08-08T06:47:46;0;0;
77777;PMS5003;66966;-34.746;138.604;2023-08-08T06:50:11;0;0;
77777;PMS5003;66966;-34.746;138.604;2023-08-08T06:52:37;0;0;
77777;PMS5003;66966;-34.746;138.604;2023-08-08T06:55:02;0;0;
77777;PMS5003;66966;-34.746;138.604;2023-08-08T06:57:28;1;0;
77777;PMS5003;66966;-34.746;138.604;2023-08-08T06:59:52;0;0;
77777;PMS5003;66966;-34.746;138.604;2023-08-08T07:02:19;0;0;
77777;PMS5003;66966;-34.746;138.604;2023-08-08T07:04:44;1;1;
77777;PMS5003;66966;-34.746;138.604;2023-08-08T07:07:09;0;0;
77777;PMS5003;66966;-34.746;138.604;2023-08-08T07:09:34;0;0;
77777;PMS5003;66966;-34.746;138.604;2023-08-08T07:11:59;1;1;
77777;PMS5003;66966;-34.746;138.604;2023-08-08T07:14:25;1;1;
77777;PMS5003;66966;-34.746;138.604;2023-08-08T07:16:51;1;0;
77777;PMS5003;66966;-34.746;138.604;2023-08-08T07:19:16;2;1;
77777;PMS5003;66966;-34.746;138.604;2023-08-08T07:21:41;1;1;
77777;PMS5003;66966;-34.746;138.604;2023-08-08T07:24:07;2;2;
77777;PMS5003;66966;-34.746;138.604;2023-08-08T07:26:32;1;1;
77777;PMS5003;66966;-34.746;138.604;2023-08-08T07:28:58;2;1;
77777;PMS5003;66966;-34.746;138.604;2023-08-08T07:31:23;3;1;
77777;PMS5003;66966;-34.746;138.604;2023-08-08T07:33:48;1;1;
77777;PMS5003;66966;-34.746;138.604;2023-08-08T07:36:14;0;0;
77777;PMS5003;66966;-34.746;138.604;2023-08-08T07:38:39;0;0;
77777;PMS5003;66966;-34.746;138.604;2023-08-08T07:41:05;2;1;
77777;PMS5003;66966;-34.746;138.604;2023-08-08T07:43:30;2;1;
77777;PMS5003;66966;-34.746;138.604;2023-08-08T07:45:56;1;0;
77777;PMS5003;66966;-34.746;138.604;2023-08-08T07:48:21;1;1;
77777;PMS5003;66966;-34.746;138.604;2023-08-08T07:50:47;1;1;
77777;PMS5003;66966;-34.746;138.604;2023-08-08T07:53:12;0;0;
77777;PMS5003;66966;-34.746;138.604;2023-08-08T07:55:38;1;0;
77777;PMS5003;66966;-34.746;138.604;2023-08-08T07:58:03;0;0;
77777;PMS5003;66966;-34.746;138.604;2023-08-08T08:00:29;2;1;
77777;PMS5003;66966;-34.746;138.604;2023-08-08T08:02:54;0;0;
77777;PMS5003;66966;-34.746;138.604;2023-08-08T08:05:20;2;2;
77777;PMS5003;66966;-34.746;138.604;2023-08-08T08:07:45;1;1;
77777;PMS5003;66966;-34.746;138.604;2023-08-08T08:10:11;2;1;
77777;PMS5003;66966;-34.746;138.604;2023-08-08T08:12:36;1;1;
77777;PMS5003;66966;-34.746;138.604;2023-08-08T08:15:02;2;2;
77777;PMS5003;66966;-34.746;138.604;2023-08-08T08:17:28;2;2;
77777;PMS5003;66966;-34.746;138.604;2023-08-08T08:19:53;2;2;
77777;PMS5003;66966;-34.746;138.604;2023-08-08T08:22:18;2;2;
77777;PMS5003;66966;-34.746;138.604;2023-08-08T08:24:44;4;3;
77777;PMS5003;66966;-34.746;138.604;2023-08-08T08:27:09;2;2;
77777;PMS5003;66966;-34.746;138.604;2023-08-08T08:29:35;4;4;
77777;PMS5003;66966;-34.746;138.604;2023-08-08T08:32:01;2;2;
77777;PMS5003;66966;-34.746;138.604;2023-08-08T08:34:26;3;3;
77777;PMS5003;66966;-34.746;138.604;2023-08-08T08:36:52;5;4;
77777;PMS5003;66966;-34.746;138.604;2023-08-08T08:39:17;4;4;
77777;PMS5003;66966;-34.746;138.604;2023-08-08T08:41:43;4;4;
77777;PMS5003;66966;-34.746;138.604;2023-08-08T08:44:08;6;6;
77777;PMS5003;66966;-34.746;138.604;2023-08-08T08:46:34;8;7;
77777;PMS5003;66966;-34.746;138.604;2023-08-08T08:49:00;8;7;
77777;PMS5003;66966;-34.746;138.604;2023-08-08T08:51:25;12;9;
77777;PMS5003;66966;-34.746;138.604;2023-08-08T08:53:51;8;8;
77777;PMS5003;66966;-34.746;138.604;2023-08-08T08:56:16;6;6;
77777;PMS5003;66966;-34.746;138.604;2023-08-08T08:58:42;8;8;
77777;PMS5003;66966;-34.746;138.604;2023-08-08T09:01:08;8;8;
77777;PMS5003;66966;-34.746;138.604;2023-08-08T09:03:33;7;7;
77777;PMS5003;66966;-34.746;138.604;2023-08-08T09:05:59;9;9;
77777;PMS5003;66966;-34.746;138.604;2023-08-08T09:08:24;9;8;
77777;PMS5003;66966;-34.746;138.604;2023-08-08T09:10:50;10;10;
77777;PMS5003;66966;-34.746;138.604;2023-08-08T09:13:16;10;8;
77777;PMS5003;66966;-34.746;138.604;2023-08-08T09:15:41;8;8;
77777;PMS5003;66966;-34.746;138.604;2023-08-08T09:18:07;10;8;
77777;PMS5003;66966;-34.746;138.604;2023-08-08T09:20:32;10;10;
77777;PMS5003;66966;-34.746;138.604;2023-08-08T09:22:58;10;10;
77777;PMS5003;66966;-34.746;138.604;2023-08-08T09:25:25;11;11;
77777;PMS5003;66966;-34.746;138.604;2023-08-08T09:27:50;12;9;
77777;PMS5003;66966;-34.746;138.604;2023-08-08T09:30:15;12;11;
77777;PMS5003;66966;-34.746;138.604;2023-08-08T09:32:42;15;14;
77777;PMS5003;66966;-34.746;138.604;2023-08-08T09:35:07;16;16;
77777;PMS5003;66966;-34.746;138.604;2023-08-08T09:37:32;16;16;
77777;PMS5003;66966;-34.746;138.604;2023-08-08T09:39:58;21;17;
77777;PMS5003;66966;-34.746;138.604;2023-08-08T09:42:23;27;26;
77777;PMS5003;66966;-34.746;138.604;2023-08-08T09:44:49;27;27;
77777;PMS5003;66966;-34.746;138.604;2023-08-08T09:47:15;30;27;
77777;PMS5003;66966;-34.746;138.604;2023-08-08T09:49:39;41;39;
77777;PMS5003;66966;-34.746;138.604;2023-08-08T09:52:05;38;35;
77777;PMS5003;66966;-34.746;138.604;2023-08-08T09:54:30;40;38;
77777;PMS5003;66966;-34.746;138.604;2023-08-08T09:56:56;46;43;
77777;PMS5003;66966;-34.746;138.604;2023-08-08T09:59:21;39;36;
77777;PMS5003;66966;-34.746;138.604;2023-08-08T10:01:47;41;37;
77777;PMS5003;66966;-34.746;138.604;2023-08-08T10:04:12;28;26;
77777;PMS5003;66966;-34.746;138.604;2023-08-08T10:06:38;20;19;
77777;PMS5003;66966;-34.746;138.604;2023-08-08T10:09:03;21;21;
77777;PMS5003;66966;-34.746;138.604;2023-08-08T10:11:28;19;18;
77777;PMS5003;66966;-34.746;138.604;2023-08-08T10:13:54;15;15;
77777;PMS5003;66966;-34.746;138.604;2023-08-08T10:16:20;14;14;
77777;PMS5003;66966;-34.746;138.604;2023-08-08T10:19:13;14;13;
77777;PMS5003;66966;-34.746;138.604;2023-08-08T10:21:32;12;11;
77777;PMS5003;66966;-34.746;138.604;2023-08-08T10:24:01;15;13;
77777;PMS5003;66966;-34.746;138.604;2023-08-08T10:26:21;11;10;
77777;PMS5003;66966;-34.746;138.604;2023-08-08T10:28:53;10;9;
77777;PMS5003;66966;-34.746;138.604;2023-08-08T10:31:15;8;8;
77777;PMS5003;66966;-34.746;138.604;2023-08-08T10:33:41;8;8;
77777;PMS5003;66966;-34.746;138.604;2023-08-08T10:36:04;9;7;
77777;PMS5003;66966;-34.746;138.604;2023-08-08T10:40:57;7;6;
77777;PMS5003;66966;-34.746;138.604;2023-08-08T10:43:25;5;5;
77777;PMS5003;66966;-34.746;138.604;2023-08-08T10:45:47;6;6;
77777;PMS5003;66966;-34.746;138.604;2023-08-08T10:48:12;5;5;
77777;PMS5003;66966;-34.746;138.604;2023-08-08T10:50:38;4;4;
77777;PMS5003;66966;-34.746;138.604;2023-08-08T10:53:04;6;6;
77777;PMS5003;66966;-34.746;138.604;2023-08-08T10:55:31;5;4;
77777;PMS5003;66966;-34.746;138.604;2023-08-08T10:57:56;3;3;
77777;PMS5003;66966;-34.746;138.604;2023-08-08T11:00:22;4;3;
77777;PMS5003;66966;-34.746;138.604;2023-08-08T11:02:47;3;3;
77777;PMS5003;66966;-34.746;138.604;2023-08-08T11:05:12;3;3;
77777;PMS5003;66966;-34.746;138.604;2023-08-08T11:07:38;3;3;
77777;PMS5003;66966;-34.746;138.604;2023-08-08T11:10:04;2;2;
77777;PMS5003;66966;-34.746;138.604;2023-08-08T11:12:29;2;2;
77777;PMS5003;66966;-34.746;138.604;2023-08-08T11:14:55;2;1;
77777;PMS5003;66966;-34.746;138.604;2023-08-08T11:17:21;4;3;
77777;PMS5003;66966;-34.746;138.604;2023-08-08T11:19:47;2;2;
77777;PMS5003;66966;-34.746;138.604;2023-08-08T11:22:13;5;4;
77777;PMS5003;66966;-34.746;138.604;2023-08-08T11:24:38;3;3;
77777;PMS5003;66966;-34.746;138.604;2023-08-08T11:27:04;2;2;
77777;PMS5003;66966;-34.746;138.604;2023-08-08T11:29:30;4;4;
77777;PMS5003;66966;-34.746;138.604;2023-08-08T11:31:55;4;4;
77777;PMS5003;66966;-34.746;138.604;2023-08-08T11:34:22;5;4;
77777;PMS5003;66966;-34.746;138.604;2023-08-08T11:36:47;3;3;
77777;PMS5003;66966;-34.746;138.604;2023-08-08T11:39:12;4;4;
77777;PMS5003;66966;-34.746;138.604;2023-08-08T11:41:38;3;3;
77777;PMS5003;66966;-34.746;138.604;2023-08-08T11:44:04;3;3;
77777;PMS5003;66966;-34.746;138.604;2023-08-08T11:46:30;4;4;
77777;PMS5003;66966;-34.746;138.604;2023-08-08T11:49:01;3;3;
77777;PMS5003;66966;-34.746;138.604;2023-08-08T11:51:21;3;2;
77777;PMS5003;66966;-34.746;138.604;2023-08-08T11:53:48;3;3;
77777;PMS5003;66966;-34.746;138.604;2023-08-08T11:56:13;2;2;
77777;PMS5003;66966;-34.746;138.604;2023-08-08T11:58:39;4;4;
77777;PMS5003;66966;-34.746;138.604;2023-08-08T12:01:06;3;2;
77777;PMS5003;66966;-34.746;138.604;2023-08-08T12:03:30;2;2;
77777;PMS5003;66966;-34.746;138.604;2023-08-08T12:05:56;3;2;
77777;PMS5003;66966;-34.746;138.604;2023-08-08T12:08:21;3;3;
77777;PMS5003;66966;-34.746;138.604;2023-08-08T12:10:48;2;2;
77777;PMS5003;66966;-34.746;138.604;2023-08-08T12:13:13;2;2;
77777;PMS5003;66966;-34.746;138.604;2023-08-08T12:15:38;1;1;
77777;PMS5003;66966;-34.746;138.604;2023-08-08T12:18:04;2;2;
77777;PMS5003;66966;-34.746;138.604;2023-08-08T12:20:30;4;3;
77777;PMS5003;66966;-34.746;138.604;2023-08-08T12:22:56;2;2;
77777;PMS5003;66966;-34.746;138.604;2023-08-08T12:25:22;6;4;
77777;PMS5003;66966;-34.746;138.604;2023-08-08T12:27:47;3;3;
77777;PMS5003;66966;-34.746;138.604;2023-08-08T12:30:13;5;3;
77777;PMS5003;66966;-34.746;138.604;2023-08-08T12:32:38;3;3;
77777;PMS5003;66966;-34.746;138.604;2023-08-08T12:35:05;4;4;
77777;PMS5003;66966;-34.746;138.604;2023-08-08T12:37:31;5;4;
77777;PMS5003;66966;-34.746;138.604;2023-08-08T12:39:56;4;4;
77777;PMS5003;66966;-34.746;138.604;2023-08-08T12:42:21;5;5;
77777;PMS5003;66966;-34.746;138.604;2023-08-08T12:44:47;4;4;
77777;PMS5003;66966;-34.746;138.604;2023-08-08T12:47:13;5;5;
77777;PMS5003;66966;-34.746;138.604;2023-08-08T12:49:39;5;4;
77777;PMS5003;66966;-34.746;138.604;2023-08-08T12:52:05;4;3;
77777;PMS5003;66966;-34.746;138.604;2023-08-08T12:54:30;4;4;
77777;PMS5003;66966;-34.746;138.604;2023-08-08T12:56:56;4;4;
77777;PMS5003;66966;-34.746;138.604;2023-08-08T12:59:22;8;5;
77777;PMS5003;66966;-34.746;138.604;2023-08-08T13:01:48;4;4;
77777;PMS5003;66966;-34.746;138.604;2023-08-08T13:04:13;5;4;
77777;PMS5003;66966;-34.746;138.604;2023-08-08T13:06:39;4;4;
77777;PMS5003;66966;-34.746;138.604;2023-08-08T13:09:05;3;3;
77777;PMS5003;66966;-34.746;138.604;2023-08-08T13:11:31;5;4;
77777;PMS5003;66966;-34.746;138.604;2023-08-08T13:13:57;5;5;
77777;PMS5003;66966;-34.746;138.604;2023-08-08T13:16:22;3;3;
77777;PMS5003;66966;-34.746;138.604;2023-08-08T13:18:48;4;4;
77777;PMS5003;66966;-34.746;138.604;2023-08-08T13:21:14;6;5;
77777;PMS5003;66966;-34.746;138.604;2023-08-08T13:23:40;5;5;
77777;PMS5003;66966;-34.746;138.604;2023-08-08T13:26:06;5;5;
77777;PMS5003;66966;-34.746;138.604;2023-08-08T13:28:31;6;6;
77777;PMS5003;66966;-34.746;138.604;2023-08-08T13:30:57;6;6;
77777;PMS5003;66966;-34.746;138.604;2023-08-08T13:33:23;6;5;
77777;PMS5003;66966;-34.746;138.604;2023-08-08T13:35:49;5;5;
77777;PMS5003;66966;-34.746;138.604;2023-08-08T13:38:15;5;5;
77777;PMS5003;66966;-34.746;138.604;2023-08-08T13:40:40;4;4;
77777;PMS5003;66966;-34.746;138.604;2023-08-08T13:43:06;6;6;
77777;PMS5003;66966;-34.746;138.604;2023-08-08T13:45:32;7;6;
77777;PMS5003;66966;-34.746;138.604;2023-08-08T13:47:58;7;6;
77777;PMS5003;66966;-34.746;138.604;2023-08-08T13:50:24;7;6;
77777;PMS5003;66966;-34.746;138.604;2023-08-08T13:52:49;8;7;
77777;PMS5003;66966;-34.746;138.604;2023-08-08T13:55:15;6;6;
77777;PMS5003;66966;-34.746;138.604;2023-08-08T13:57:41;6;6;
77777;PMS5003;66966;-34.746;138.604;2023-08-08T14:00:07;5;5;
77777;PMS5003;66966;-34.746;138.604;2023-08-08T14:02:34;5;5;
77777;PMS5003;66966;-34.746;138.604;2023-08-08T14:04:59;5;5;
77777;PMS5003;66966;-34.746;138.604;2023-08-08T14:07:25;5;5;
77777;PMS5003;66966;-34.746;138.604;2023-08-08T14:09:50;6;5;
77777;PMS5003;66966;-34.746;138.604;2023-08-08T14:12:16;5;5;
77777;PMS5003;66966;-34.746;138.604;2023-08-08T14:14:42;4;4;
77777;PMS5003;66966;-34.746;138.604;2023-08-08T14:17:08;5;4;
77777;PMS5003;66966;-34.746;138.604;2023-08-08T14:19:34;4;4;
77777;PMS5003;66966;-34.746;138.604;2023-08-08T14:22:00;2;2;
77777;PMS5003;66966;-34.746;138.604;2023-08-08T14:24:25;2;2;
77777;PMS5003;66966;-34.746;138.604;2023-08-08T14:26:52;4;2;
77777;PMS5003;66966;-34.746;138.604;2023-08-08T14:29:17;1;1;
77777;PMS5003;66966;-34.746;138.604;2023-08-08T14:31:43;2;2;
77777;PMS5003;66966;-34.746;138.604;2023-08-08T14:34:09;3;3;
77777;PMS5003;66966;-34.746;138.604;2023-08-08T14:36:34;2;2;
77777;PMS5003;66966;-34.746;138.604;2023-08-08T14:39:01;2;1;
77777;PMS5003;66966;-34.746;138.604;2023-08-08T14:41:26;2;2;
77777;PMS5003;66966;-34.746;138.604;2023-08-08T14:43:52;2;2;
77777;PMS5003;66966;-34.746;138.604;2023-08-08T14:46:18;2;2;
77777;PMS5003;66966;-34.746;138.604;2023-08-08T14:48:43;2;2;
77777;PMS5003;66966;-34.746;138.604;2023-08-08T14:51:10;2;2;
77777;PMS5003;66966;-34.746;138.604;2023-08-08T14:53:35;4;4;
77777;PMS5003;66966;-34.746;138.604;2023-08-08T14:56:01;3;3;
77777;PMS5003;66966;-34.746;138.604;2023-08-08T14:58:27;4;2;
77777;PMS5003;66966;-34.746;138.604;2023-08-08T15:00:53;2;2;
77777;PMS5003;66966;-34.746;138.604;2023-08-08T15:03:19;3;2;
77777;PMS5003;66966;-34.746;138.604;2023-08-08T15:05:44;3;3;
77777;PMS5003;66966;-34.746;138.604;2023-08-08T15:08:10;3;3;
77777;PMS5003;66966;-34.746;138.604;2023-08-08T15:10:36;3;3;
77777;PMS5003;66966;-34.746;138.604;2023-08-08T15:13:02;2;2;
77777;PMS5003;66966;-34.746;138.604;2023-08-08T15:15:28;4;4;
77777;PMS5003;66966;-34.746;138.604;2023-08-08T15:17:53;3;3;
77777;PMS5003;66966;-34.746;138.604;2023-08-08T15:20:19;3;3;
77777;PMS5003;66966;-34.746;138.604;2023-08-08T15:22:45;2;2;
77777;PMS5003;66966;-34.746;138.604;2023-08-08T15:25:11;3;2;
77777;PMS5003;66966;-34.746;138.604;2023-08-08T15:27:37;4;4;
77777;PMS5003;66966;-34.746;138.604;2023-08-08T15:30:03;3;3;
77777;PMS5003;66966;-34.746;138.604;2023-08-08T15:32:29;3;3;
77777;PMS5003;66966;-34.746;138.604;2023-08-08T15:34:54;3;3;
77777;PMS5003;66966;-34.746;138.604;2023-08-08T15:37:20;2;2;
77777;PMS5003;66966;-34.746;138.604;2023-08-08T15:39:47;4;3;
77777;PMS5003;66966;-34.746;138.604;2023-08-08T15:42:12;3;3;
77777;PMS5003;66966;-34.746;138.604;2023-08-08T15:44:38;3;2;
77777;PMS5003;66966;-34.746;138.604;2023-08-08T15:47:04;3;3;
77777;PMS5003;66966;-34.746;138.604;2023-08-08T15:49:30;3;3;